createdAt,value
2023-05-21T00:02:30.126Z,12.23
2023-05-21T00:04:58.165Z,15.10
2023-05-21T00:07:26.098Z,15.27
2023-05-21T00:09:54.063Z,12.30
2023-05-21T00:12:21.979Z,12.97
2023-05-21T00:14:49.860Z,14.57
2023-05-21T00:17:18.057Z,11.90
2023-05-21T00:19:47.773Z,13.10
2023-05-21T00:22:16.022Z,12.53
2023-05-21T00:24:45.478Z,12.87
2023-05-21T00:27:13.452Z,13.03
2023-05-21T00:29:42.925Z,13.73
2023-05-21T00:32:12.115Z,13.83
2023-05-21T00:34:40.764Z,12.40
2023-05-21T00:37:10.829Z,12.67
2023-05-21T00:39:38.741Z,15.03
2023-05-21T00:42:06.751Z,17.60
2023-05-21T00:44:35.454Z,13.33
2023-05-21T00:47:03.415Z,16.67
2023-05-21T00:49:31.364Z,17.70
2023-05-21T00:52:01.476Z,11.83
2023-05-21T00:54:31.309Z,14.70
2023-05-21T00:56:59.177Z,14.10
2023-05-21T00:59:27.033Z,16.93
2023-05-21T01:01:56.400Z,13.87
2023-05-21T01:04:24.408Z,13.53
2023-05-21T01:06:53.523Z,11.30
2023-05-21T01:09:21.555Z,11.30
2023-05-21T01:11:51.539Z,10.80
2023-05-21T01:14:19.800Z,11.40
2023-05-21T01:16:49.357Z,13.23
2023-05-21T01:19:18.182Z,9.83
2023-05-21T01:21:47.192Z,14.53
2023-05-21T01:24:16.766Z,10.43
2023-05-21T01:26:46.601Z,12.73
2023-05-21T01:29:14.710Z,11.57
2023-05-21T01:31:55.613Z,11.10
2023-05-21T01:34:25.438Z,13.70
2023-05-21T01:36:57.043Z,9.93
2023-05-21T01:39:28.275Z,14.47
2023-05-21T01:41:56.264Z,8.97
2023-05-21T01:44:25.366Z,9.80
2023-05-21T01:46:53.955Z,9.23
2023-05-21T01:49:22.153Z,15.20
2023-05-21T01:51:50.159Z,13.57
2023-05-21T01:54:18.034Z,11.93
2023-05-21T01:56:47.964Z,10.43
2023-05-21T01:59:17.243Z,10.60
2023-05-21T02:01:45.183Z,9.73
2023-05-21T02:04:13.193Z,10.00
2023-05-21T02:06:41.848Z,10.57
2023-05-21T02:09:09.864Z,13.57
2023-05-21T02:11:37.764Z,9.07
2023-05-21T02:14:08.034Z,10.50
2023-05-21T02:16:35.985Z,10.73
2023-05-21T02:19:04.807Z,10.30
2023-05-21T02:21:32.752Z,9.07
2023-05-21T02:24:00.681Z,10.43
2023-05-21T02:26:29.025Z,9.00
2023-05-21T02:28:56.960Z,11.07
2023-05-21T02:31:26.296Z,9.47
2023-05-21T02:33:54.270Z,7.83
2023-05-21T02:36:22.174Z,11.97
2023-05-21T02:38:50.100Z,10.60
2023-05-21T02:41:18.012Z,13.27
2023-05-21T02:43:45.959Z,9.83
2023-05-21T02:46:13.901Z,9.57
2023-05-21T02:48:43.203Z,9.57
2023-05-21T02:51:11.525Z,14.20
2023-05-21T02:53:40.193Z,10.77
2023-05-21T02:56:08.492Z,10.17
2023-05-21T02:58:36.423Z,8.00
2023-05-21T03:01:04.367Z,10.53
2023-05-21T03:03:32.457Z,10.60
2023-05-21T03:06:01.915Z,8.07
2023-05-21T03:08:29.798Z,7.70
2023-05-21T03:10:57.820Z,8.57
2023-05-21T03:13:25.906Z,11.27
2023-05-21T03:15:56.528Z,8.90
2023-05-21T03:18:24.455Z,8.33
2023-05-21T03:20:52.326Z,10.23
2023-05-21T03:23:21.553Z,9.43
2023-05-21T03:25:50.878Z,8.37
2023-05-21T03:28:19.794Z,8.20
2023-05-21T03:30:49.761Z,9.23
2023-05-21T03:33:17.716Z,9.93
2023-05-21T03:35:45.839Z,10.80
2023-05-21T03:38:13.876Z,10.73
2023-05-21T03:40:43.251Z,10.60
2023-05-21T03:43:11.157Z,7.37
2023-05-21T03:45:39.890Z,9.93
2023-05-21T03:48:09.498Z,8.97
2023-05-21T03:50:37.599Z,11.03
2023-05-21T03:53:05.545Z,8.90
2023-05-21T03:55:33.551Z,7.33
2023-05-21T03:58:03.407Z,9.53
2023-05-21T04:00:32.642Z,7.80
2023-05-21T04:03:00.754Z,8.80
2023-05-21T04:05:28.750Z,7.80
2023-05-21T04:07:58.773Z,12.53
2023-05-21T04:10:27.033Z,9.97
2023-05-21T04:12:54.976Z,8.23
2023-05-21T04:15:24.544Z,7.90
2023-05-21T04:17:52.609Z,9.77
2023-05-21T04:20:20.639Z,10.23
2023-05-21T04:22:48.523Z,8.57
2023-05-21T04:25:16.485Z,7.03
2023-05-21T04:27:47.821Z,7.17
2023-05-21T04:30:15.835Z,8.70
2023-05-21T04:32:48.256Z,8.97
2023-05-21T04:35:16.338Z,7.47
2023-05-21T04:37:45.951Z,7.30
2023-05-21T04:40:18.190Z,10.43
2023-05-21T04:42:46.706Z,7.80
2023-05-21T04:45:14.757Z,9.67
2023-05-21T04:47:46.201Z,13.80
2023-05-21T04:50:14.093Z,7.20
2023-05-21T04:52:42.208Z,7.63
2023-05-21T04:55:10.426Z,7.30
2023-05-21T04:57:38.486Z,6.87
2023-05-21T05:00:08.669Z,9.27
2023-05-21T05:02:36.767Z,6.57
2023-05-21T05:05:06.820Z,10.00
2023-05-21T05:07:34.725Z,6.07
2023-05-21T05:10:02.635Z,8.13
2023-05-21T05:12:30.504Z,12.30
2023-05-21T05:14:58.382Z,9.03
2023-05-21T05:17:26.342Z,9.17
2023-05-21T05:19:54.288Z,7.83
2023-05-21T05:22:23.672Z,8.50
2023-05-21T05:24:51.589Z,5.97
2023-05-21T05:27:19.555Z,8.97
2023-05-21T05:29:47.925Z,6.80
2023-05-21T05:32:15.932Z,5.47
2023-05-21T05:34:44.064Z,7.83
2023-05-21T05:37:11.960Z,7.73
2023-05-21T05:39:41.219Z,6.57
2023-05-21T05:42:09.084Z,6.63
2023-05-21T05:44:37.019Z,8.07
2023-05-21T05:47:09.227Z,6.70
2023-05-21T05:49:37.129Z,6.47
2023-05-21T05:52:05.759Z,5.57
2023-05-21T05:54:33.631Z,6.20
2023-05-21T05:57:02.903Z,6.67
2023-05-21T05:59:30.865Z,6.33
2023-05-21T06:01:58.833Z,10.23
2023-05-21T06:04:29.946Z,4.20
2023-05-21T06:06:58.580Z,6.97
2023-05-21T06:09:26.540Z,5.47
2023-05-21T06:11:54.524Z,4.23
2023-05-21T06:14:23.808Z,6.77
2023-05-21T06:16:51.701Z,10.07
2023-05-21T06:19:20.164Z,5.90
2023-05-21T06:21:48.561Z,7.03
2023-05-21T06:24:16.676Z,9.00
2023-05-21T06:26:44.596Z,7.47
2023-05-21T06:29:14.856Z,7.90
2023-05-21T06:31:44.847Z,9.30
2023-05-21T06:34:12.930Z,4.77
2023-05-21T06:36:41.184Z,5.87
2023-05-21T06:39:09.107Z,6.23
2023-05-21T06:41:38.157Z,5.83
2023-05-21T06:44:06.512Z,5.23
2023-05-21T06:46:35.534Z,6.60
2023-05-21T06:49:07.061Z,8.03
2023-05-21T06:51:35.066Z,4.43
2023-05-21T06:54:03.107Z,8.07
2023-05-21T06:56:31.069Z,7.63
2023-05-21T06:58:59.406Z,5.53
2023-05-21T07:01:27.699Z,6.63
2023-05-21T07:03:55.768Z,5.07
2023-05-21T07:06:25.093Z,7.33
2023-05-21T07:08:53.051Z,3.10
2023-05-21T07:11:21.557Z,4.50
2023-05-21T07:13:49.485Z,5.10
2023-05-21T07:16:18.019Z,3.70
2023-05-21T07:18:46.114Z,3.07
2023-05-21T07:21:14.065Z,4.63
2023-05-21T07:23:43.304Z,3.80
2023-05-21T07:26:11.416Z,2.80
2023-05-21T07:28:39.350Z,3.00
2023-05-21T07:31:08.454Z,3.53
2023-05-21T07:33:36.489Z,4.60
2023-05-21T07:36:04.673Z,3.03
2023-05-21T07:38:32.621Z,3.40
2023-05-21T07:41:01.959Z,2.97
2023-05-21T07:43:30.042Z,3.17
2023-05-21T07:45:57.923Z,5.67
2023-05-21T07:48:27.015Z,2.30
2023-05-21T07:50:56.540Z,2.37
2023-05-21T07:53:24.480Z,3.80
2023-05-21T07:55:52.472Z,4.17
2023-05-21T07:58:21.798Z,3.97
2023-05-21T08:00:51.198Z,6.87
2023-05-21T08:03:19.718Z,2.67
2023-05-21T08:05:49.463Z,3.30
2023-05-21T08:08:17.451Z,1.57
2023-05-21T08:10:45.456Z,1.93
2023-05-21T08:13:13.418Z,2.23
2023-05-21T08:15:42.848Z,2.03
2023-05-21T08:18:12.034Z,2.93
2023-05-21T08:20:40.068Z,1.83
2023-05-21T08:23:08.009Z,4.57
2023-05-21T08:25:36.169Z,2.10
2023-05-21T08:28:04.472Z,3.70
2023-05-21T08:30:32.351Z,2.77
2023-05-21T08:33:02.366Z,3.47
2023-05-21T08:35:30.485Z,3.20
2023-05-21T08:37:58.816Z,2.40
2023-05-21T08:40:26.817Z,3.07
2023-05-21T08:42:54.878Z,2.23
2023-05-21T08:45:23.443Z,2.30
2023-05-21T08:47:56.053Z,8.03
2023-05-21T08:50:27.210Z,4.13
2023-05-21T08:52:57.716Z,4.43
2023-05-21T08:55:26.961Z,2.47
2023-05-21T08:57:55.174Z,1.93
2023-05-21T09:00:24.302Z,2.73
2023-05-21T09:02:54.527Z,3.97
2023-05-21T09:05:22.831Z,2.70
2023-05-21T09:08:03.497Z,6.33
2023-05-21T09:10:35.287Z,2.17
2023-05-21T09:13:03.228Z,2.10
2023-05-21T09:15:31.569Z,3.03
2023-05-21T09:17:59.584Z,2.73
2023-05-21T09:20:27.826Z,2.60
2023-05-21T09:22:57.326Z,1.87
2023-05-21T09:25:28.170Z,2.10
2023-05-21T09:27:56.629Z,2.87
2023-05-21T09:30:34.835Z,1.97
2023-05-21T09:33:04.059Z,3.20
2023-05-21T09:35:32.014Z,2.03
2023-05-21T09:38:01.947Z,2.30
2023-05-21T09:40:29.873Z,2.80
2023-05-21T09:42:57.807Z,2.90
2023-05-21T09:45:26.220Z,2.10
2023-05-21T09:47:54.812Z,3.50
2023-05-21T09:50:23.300Z,2.00
2023-05-21T09:52:53.104Z,4.43
2023-05-21T09:55:24.016Z,2.53
2023-05-21T09:57:52.145Z,2.53
2023-05-21T10:00:21.340Z,4.37
2023-05-21T10:02:49.673Z,2.33
2023-05-21T10:05:18.427Z,2.77
2023-05-21T10:07:48.656Z,2.43
2023-05-21T10:10:17.079Z,3.23
2023-05-21T10:12:47.719Z,2.40
2023-05-21T10:15:17.454Z,1.80
2023-05-21T10:17:46.251Z,2.03
2023-05-21T10:20:14.599Z,1.87
2023-05-21T10:22:42.550Z,3.27
2023-05-21T10:25:10.596Z,3.23
2023-05-21T10:27:38.509Z,2.60
2023-05-21T10:30:08.708Z,2.37
2023-05-21T10:32:36.977Z,1.77
2023-05-21T10:35:05.857Z,1.83
2023-05-21T10:37:33.809Z,2.20
2023-05-21T10:40:02.281Z,2.00
2023-05-21T10:43:15.262Z,2.93
2023-05-21T10:45:55.198Z,1.50
2023-05-21T10:48:34.494Z,1.60
2023-05-21T10:51:29.110Z,3.10
2023-05-21T10:54:18.360Z,3.57
2023-05-21T10:56:48.336Z,1.70
2023-05-21T10:59:23.158Z,5.47
2023-05-21T11:01:53.708Z,1.70
2023-05-21T11:04:26.652Z,1.65
2023-05-21T11:06:54.961Z,1.83
2023-05-21T11:09:23.122Z,1.87
2023-05-21T11:11:52.427Z,1.90
2023-05-21T11:14:32.004Z,2.83
2023-05-21T11:17:02.087Z,1.90
2023-05-21T11:19:39.664Z,2.20
2023-05-21T11:22:11.922Z,1.88
2023-05-21T11:24:41.363Z,1.75
2023-05-21T11:27:09.852Z,1.90
2023-05-21T11:29:42.118Z,1.77
2023-05-21T11:32:12.361Z,2.00
2023-05-21T11:34:42.052Z,1.88
2023-05-21T11:37:46.136Z,3.15
2023-05-21T11:40:30.935Z,2.75
2023-05-21T11:42:58.967Z,3.05
2023-05-21T11:45:31.013Z,2.30
2023-05-21T11:48:00.685Z,2.95
2023-05-21T11:50:30.689Z,2.15
2023-05-21T11:52:59.893Z,2.97
2023-05-21T11:55:27.939Z,1.90
2023-05-21T11:57:56.521Z,4.22
2023-05-21T12:00:24.640Z,1.80
2023-05-21T12:02:53.453Z,1.98
2023-05-21T12:05:23.685Z,1.90
2023-05-21T12:07:51.630Z,2.20
2023-05-21T12:10:22.585Z,3.33
2023-05-21T12:12:55.529Z,2.78
2023-05-21T12:15:26.036Z,1.77
2023-05-21T12:17:54.295Z,2.10
2023-05-21T12:20:23.898Z,3.67
2023-05-21T12:22:52.057Z,3.15
2023-05-21T12:25:21.206Z,6.18
2023-05-21T12:27:50.290Z,1.60
2023-05-21T12:30:18.251Z,2.50
2023-05-21T12:32:46.162Z,2.65
2023-05-21T12:35:23.965Z,1.73
2023-05-21T12:37:52.705Z,1.90
2023-05-21T12:40:21.053Z,2.53
2023-05-21T12:42:49.481Z,1.95
2023-05-21T12:45:18.790Z,3.13
2023-05-21T12:47:49.906Z,1.70
2023-05-21T12:50:18.102Z,1.95
2023-05-21T12:52:47.404Z,1.95
2023-05-21T12:55:16.750Z,1.80
2023-05-21T12:57:44.846Z,2.30
2023-05-21T13:00:14.395Z,2.95
2023-05-21T13:02:43.549Z,3.67
2023-05-21T13:05:17.451Z,4.85
2023-05-21T13:07:47.597Z,1.92
2023-05-21T13:10:17.677Z,2.03
2023-05-21T13:12:46.119Z,1.70
2023-05-21T13:15:14.431Z,1.88
2023-05-21T13:17:42.579Z,1.83
2023-05-21T13:20:12.524Z,1.80
2023-05-21T13:22:42.591Z,2.55
2023-05-21T13:25:11.184Z,3.20
2023-05-21T13:27:41.927Z,6.03
2023-05-21T13:30:11.779Z,2.58
2023-05-21T13:32:40.797Z,2.05
2023-05-21T13:35:10.163Z,2.55
2023-05-21T13:37:38.156Z,4.68
2023-05-21T13:40:07.351Z,1.83
2023-05-21T13:42:35.563Z,2.92
2023-05-21T13:45:05.380Z,6.82
2023-05-21T13:47:33.594Z,2.30
2023-05-21T13:50:01.640Z,2.30
2023-05-21T13:52:29.838Z,2.80
2023-05-21T13:54:57.711Z,3.47
2023-05-21T13:57:26.860Z,2.10
2023-05-21T13:59:54.818Z,4.07
2023-05-21T14:02:24.301Z,3.58
2023-05-21T14:04:52.370Z,4.53
2023-05-21T14:07:20.340Z,2.70
2023-05-21T14:09:48.724Z,2.75
2023-05-21T14:12:16.994Z,2.70
2023-05-21T14:14:45.057Z,2.80
2023-05-21T14:17:13.046Z,2.67
2023-05-21T14:19:42.501Z,3.95
2023-05-21T14:22:10.437Z,2.88
2023-05-21T14:24:38.343Z,2.28
2023-05-21T14:27:06.661Z,3.08
2023-05-21T14:29:34.640Z,2.67
2023-05-21T14:32:02.707Z,2.50
2023-05-21T14:34:30.753Z,3.05
2023-05-21T14:37:00.510Z,4.00
2023-05-21T14:39:28.605Z,3.70
2023-05-21T14:41:56.584Z,2.53
2023-05-21T14:44:24.828Z,1.98
2023-05-21T14:46:52.837Z,5.65
2023-05-21T14:49:20.832Z,3.38
2023-05-21T14:51:49.443Z,5.75
2023-05-21T14:54:18.791Z,3.13
2023-05-21T14:56:46.734Z,2.17
2023-05-21T14:59:14.654Z,2.13
2023-05-21T15:01:42.737Z,8.20
2023-05-21T15:04:11.158Z,3.22
2023-05-21T15:06:39.224Z,5.10
2023-05-21T15:09:07.169Z,2.45
2023-05-21T15:11:36.463Z,2.05
2023-05-21T15:14:04.386Z,2.15
2023-05-21T15:16:32.411Z,1.80
2023-05-21T15:19:00.397Z,2.55
2023-05-21T15:21:28.402Z,3.00
2023-05-21T15:23:56.385Z,2.15
2023-05-21T15:26:25.601Z,2.20
2023-05-21T15:28:54.904Z,2.55
2023-05-21T15:31:22.904Z,2.17
2023-05-21T15:33:50.788Z,2.40
2023-05-21T15:36:18.701Z,2.63
2023-05-21T15:38:46.786Z,5.55
2023-05-21T15:41:14.675Z,2.17
2023-05-21T15:43:43.401Z,2.00
2023-05-21T15:46:12.932Z,3.70
2023-05-21T15:48:41.311Z,2.58
2023-05-21T15:51:09.573Z,4.13
2023-05-21T15:53:37.640Z,4.78
2023-05-21T15:56:05.808Z,6.25
2023-05-21T15:58:33.870Z,2.65
2023-05-21T16:01:01.856Z,8.07
2023-05-21T16:03:31.224Z,2.10
2023-05-21T16:05:59.149Z,2.13
2023-05-21T16:08:27.162Z,2.13
2023-05-21T16:10:55.246Z,2.30
2023-05-21T16:13:23.167Z,3.45
2023-05-21T16:15:51.771Z,2.75
2023-05-21T16:18:19.654Z,4.47
2023-05-21T16:20:49.444Z,3.25
2023-05-21T16:23:17.401Z,2.22
2023-05-21T16:25:45.347Z,8.98
2023-05-21T16:28:13.466Z,3.90
2023-05-21T16:30:41.385Z,2.38
2023-05-21T16:33:10.058Z,2.53
2023-05-21T16:35:38.362Z,2.95
2023-05-21T16:38:24.248Z,2.60
2023-05-21T16:40:53.556Z,4.05
2023-05-21T16:43:25.464Z,3.88
2023-05-21T16:45:54.049Z,3.40
2023-05-21T16:48:25.499Z,3.10
2023-05-21T16:50:53.448Z,2.47
2023-05-21T16:53:22.723Z,2.85
2023-05-21T16:55:50.736Z,3.88
2023-05-21T16:58:19.108Z,2.60
2023-05-21T17:00:47.413Z,4.30
2023-05-21T17:03:16.049Z,2.60
2023-05-21T17:05:44.401Z,4.03
2023-05-21T17:08:12.597Z,2.40
2023-05-21T17:10:41.990Z,2.78
2023-05-21T17:13:21.618Z,2.80
2023-05-21T17:15:51.611Z,3.85
2023-05-21T17:18:19.577Z,6.32
2023-05-21T17:20:47.580Z,3.25
2023-05-21T17:23:15.715Z,3.83
2023-05-21T17:25:45.026Z,2.90
2023-05-21T17:28:12.905Z,4.07
2023-05-21T17:30:40.948Z,6.07
2023-05-21T17:33:10.385Z,4.75
2023-05-21T17:35:39.004Z,5.57
2023-05-21T17:38:07.496Z,7.13
2023-05-21T17:40:35.619Z,5.00
2023-05-21T17:43:07.331Z,5.97
2023-05-21T17:45:35.985Z,3.00
2023-05-21T17:48:04.524Z,4.50
2023-05-21T17:50:32.577Z,3.45
2023-05-21T17:53:00.817Z,2.85
2023-05-21T17:55:28.785Z,3.60
2023-05-21T17:57:56.904Z,4.55
2023-05-21T18:00:26.738Z,10.23
2023-05-21T18:02:55.159Z,3.40
2023-05-21T18:05:23.690Z,6.00
2023-05-21T18:07:51.564Z,9.23
2023-05-21T18:10:19.451Z,2.83
2023-05-21T18:12:50.379Z,6.35
2023-05-21T18:15:18.538Z,4.13
2023-05-21T18:17:47.976Z,5.60
2023-05-21T18:20:16.476Z,5.57
2023-05-21T18:22:45.632Z,4.25
2023-05-21T18:25:13.501Z,4.68
2023-05-21T18:27:41.400Z,7.07
2023-05-21T18:30:10.666Z,3.72
2023-05-21T18:32:39.542Z,2.92
2023-05-21T18:35:11.979Z,4.18
2023-05-21T18:37:44.780Z,4.25
2023-05-21T18:40:13.860Z,4.57
2023-05-21T18:42:41.869Z,3.10
2023-05-21T18:45:11.218Z,4.28
2023-05-21T18:47:40.423Z,4.95
2023-05-21T18:50:11.945Z,4.80
2023-05-21T18:52:40.376Z,3.90
2023-05-21T18:55:09.151Z,7.80
2023-05-21T18:57:38.175Z,7.07
2023-05-21T19:00:09.496Z,9.65
2023-05-21T19:02:37.743Z,7.40
2023-05-21T19:05:06.576Z,7.85
2023-05-21T19:07:36.322Z,7.18
2023-05-21T19:10:04.463Z,3.65
2023-05-21T19:12:32.413Z,3.30
2023-05-21T19:15:00.426Z,4.07
2023-05-21T19:17:28.397Z,3.92
2023-05-21T19:19:56.801Z,4.28
2023-05-21T19:22:24.984Z,3.78
2023-05-21T19:24:54.393Z,5.28
2023-05-21T19:27:22.311Z,6.65
2023-05-21T19:29:50.216Z,6.68
2023-05-21T19:32:18.195Z,6.03
2023-05-21T19:34:46.890Z,12.45
2023-05-21T19:37:14.966Z,6.03
2023-05-21T19:39:43.501Z,9.82
2023-05-21T19:42:13.179Z,15.43
2023-05-21T19:44:41.372Z,8.05
2023-05-21T19:47:09.538Z,5.70
2023-05-21T19:49:37.696Z,12.45
2023-05-21T19:52:06.245Z,7.43
2023-05-21T19:54:34.215Z,5.90
2023-05-21T19:57:02.256Z,10.93
2023-05-21T19:59:31.703Z,12.40
2023-05-21T20:01:59.695Z,16.47
2023-05-21T20:04:28.170Z,15.47
2023-05-21T20:06:56.133Z,11.87
2023-05-21T20:09:24.096Z,9.77
2023-05-21T20:11:52.535Z,8.83
2023-05-21T20:14:20.799Z,11.47
2023-05-21T20:16:50.347Z,6.83
2023-05-21T20:19:18.679Z,10.07
2023-05-21T20:21:46.796Z,15.60
2023-05-21T20:24:14.922Z,7.80
2023-05-21T20:26:45.091Z,8.00
2023-05-21T20:29:13.112Z,10.80
2023-05-21T20:31:42.035Z,7.17
2023-05-21T20:34:12.405Z,7.23
2023-05-21T20:36:41.515Z,8.77
2023-05-21T20:39:09.661Z,9.37
2023-05-21T20:41:38.768Z,6.27
2023-05-21T20:44:07.084Z,6.77
2023-05-21T20:46:38.567Z,4.57
2023-05-21T20:49:06.880Z,5.73
2023-05-21T20:51:36.191Z,6.57
2023-05-21T20:54:04.080Z,4.23
2023-05-21T20:56:41.929Z,3.77
2023-05-21T20:59:11.998Z,8.10
2023-05-21T21:01:40.744Z,4.07
2023-05-21T21:04:09.395Z,4.43
2023-05-21T21:06:40.545Z,7.03
2023-05-21T21:09:08.624Z,4.23
2023-05-21T21:11:36.955Z,3.90
2023-05-21T21:14:04.955Z,4.47
2023-05-21T21:16:33.228Z,4.43
2023-05-21T21:19:01.586Z,4.23
2023-05-21T21:21:29.687Z,4.53
2023-05-21T21:23:59.050Z,3.57
2023-05-21T21:26:27.272Z,6.27
2023-05-21T21:28:56.304Z,6.13
2023-05-21T21:31:24.741Z,4.37
2023-05-21T21:33:52.795Z,6.27
2023-05-21T21:36:20.826Z,5.20
2023-05-21T21:38:48.756Z,6.13
2023-05-21T21:41:19.464Z,5.33
2023-05-21T21:43:47.472Z,5.37
2023-05-21T21:46:15.501Z,4.50
2023-05-21T21:48:43.491Z,4.97
2023-05-21T21:51:11.671Z,4.20
2023-05-21T21:53:39.543Z,5.03
2023-05-21T21:56:07.722Z,5.33
2023-05-21T21:58:37.023Z,5.33
2023-05-21T22:01:04.982Z,7.57
2023-05-21T22:03:33.751Z,6.20
2023-05-21T22:06:02.000Z,7.03
2023-05-21T22:08:29.930Z,8.13
2023-05-21T22:10:58.869Z,7.50
2023-05-21T22:13:29.196Z,4.60
2023-05-21T22:15:59.355Z,5.00
2023-05-21T22:18:39.405Z,6.87
2023-05-21T22:21:10.028Z,5.30
2023-05-21T22:23:38.578Z,5.83
2023-05-21T22:26:06.737Z,6.77
2023-05-21T22:28:34.804Z,7.40
2023-05-21T22:31:04.298Z,4.93
2023-05-21T22:33:32.454Z,7.03
2023-05-21T22:36:00.464Z,8.37
2023-05-21T22:38:28.418Z,9.37
2023-05-21T22:40:56.352Z,9.47
2023-05-21T22:43:24.328Z,5.57
2023-05-21T22:45:52.258Z,8.60
2023-05-21T22:48:22.625Z,7.23
2023-05-21T22:50:53.414Z,6.87
2023-05-21T22:53:21.594Z,7.17
2023-05-21T22:55:49.608Z,6.10
2023-05-21T22:58:17.663Z,11.57
2023-05-21T23:00:45.648Z,8.03
2023-05-21T23:03:13.653Z,12.73
2023-05-21T23:05:43.172Z,14.00
2023-05-21T23:08:11.267Z,6.83
2023-05-21T23:10:39.447Z,6.30
2023-05-21T23:13:07.642Z,8.13
2023-05-21T23:15:38.755Z,6.67
2023-05-21T23:18:07.723Z,8.73
2023-05-21T23:20:37.153Z,7.67
2023-05-21T23:23:07.075Z,11.03
2023-05-21T23:25:35.418Z,8.03
2023-05-21T23:28:03.361Z,7.63
2023-05-21T23:30:31.266Z,7.47
2023-05-21T23:32:59.288Z,8.57
2023-05-21T23:35:27.346Z,10.60
2023-05-21T23:37:55.301Z,8.73
2023-05-21T23:40:24.591Z,11.83
2023-05-21T23:42:52.530Z,9.43
2023-05-21T23:45:20.557Z,8.43
2023-05-21T23:47:48.503Z,10.87
2023-05-21T23:50:16.592Z,12.43
2023-05-21T23:52:44.462Z,10.27
2023-05-21T23:55:14.688Z,11.40
2023-05-21T23:57:44.115Z,14.17
